sensor_id;sensor_type;location;lat;lon;timestamp;pressure;altitude;pressure_sealevel;temperature;humidity
29331;BME280;16331;52.528;13.342;2022-10-03T00:00:35;159089.94;;;12.31;100.00
29331;BME280;16331;52.528;13.342;2022-10-03T00:03:21;159081.66;;;12.28;100.00
29331;BME280;16331;52.528;13.342;2022-10-03T00:16:58;159089.94;;;12.31;100.00
29331;BME280;16331;52.528;13.342;2022-10-03T00:19:36;159107.75;;;12.37;100.00
29331;BME280;16331;52.528;13.342;2022-10-03T00:25:29;159062.44;;;12.21;100.00
29331;BME280;16331;52.528;13.342;2022-10-03T00:30:40;159073.41;;;12.25;100.00
29331;BME280;16331;52.528;13.342;2022-10-03T00:36:06;159128.41;;;12.45;100.00
29331;BME280;16331;52.528;13.342;2022-10-03T00:49:57;159128.41;;;12.45;100.00
29331;BME280;16331;52.528;13.342;2022-10-03T00:52:58;159098.19;;;12.34;100.00
29331;BME280;16331;52.528;13.342;2022-10-03T00:55:59;159088.53;;;12.30;100.00
29331;BME280;16331;52.528;13.342;2022-10-03T00:58:36;159065.16;;;12.22;100.00
29331;BME280;16331;52.528;13.342;2022-10-03T01:01:33;159098.19;;;12.34;100.00
29331;BME280;16331;52.528;13.342;2022-10-03T01:04:17;159102.28;;;12.35;100.00
29331;BME280;16331;52.528;13.342;2022-10-03T01:14:59;159029.44;;;12.09;100.00
29331;BME280;16331;52.528;13.342;2022-10-03T01:28:49;159070.69;;;12.24;100.00
29331;BME280;16331;52.528;13.342;2022-10-03T01:34:53;159081.66;;;12.28;100.00
29331;BME280;16331;52.528;13.342;2022-10-03T01:40:31;159099.50;;;12.34;100.00
29331;BME280;16331;52.528;13.342;2022-10-03T01:43:22;159095.38;;;12.33;100.00
29331;BME280;16331;52.528;13.342;2022-10-03T01:46:21;159098.19;;;12.34;100.00
29331;BME280;16331;52.528;13.342;2022-10-03T01:49:28;159103.63;;;12.36;100.00
29331;BME280;16331;52.528;13.342;2022-10-03T01:52:10;159139.38;;;12.49;100.00
29331;BME280;16331;52.528;13.342;2022-10-03T01:55:02;159114.66;;;12.40;100.00
29331;BME280;16331;52.528;13.342;2022-10-03T01:57:48;159120.16;;;12.42;100.00
29331;BME280;16331;52.528;13.342;2022-10-03T02:00:22;159131.13;;;12.46;100.00
29331;BME280;16331;52.528;13.342;2022-10-03T02:03:26;159155.84;;;12.55;100.00
29331;BME280;16331;52.528;13.342;2022-10-03T02:08:59;159136.63;;;12.48;100.00
29331;BME280;16331;52.528;13.342;2022-10-03T02:17:47;159133.91;;;12.47;100.00
29331;BME280;16331;52.528;13.342;2022-10-03T02:20:50;159125.63;;;12.44;100.00
29331;BME280;16331;52.528;13.342;2022-10-03T02:23:25;159146.28;;;12.51;100.00
29331;BME280;16331;52.528;13.342;2022-10-03T02:29:30;159179.22;;;12.63;100.00
29331;BME280;16331;52.528;13.342;2022-10-03T02:32:31;159162.75;;;12.57;100.00
29331;BME280;16331;52.528;13.342;2022-10-03T02:35:24;159180.63;;;12.64;100.00
29331;BME280;16331;52.528;13.342;2022-10-03T02:57:51;159192.97;;;12.68;100.00
29331;BME280;16331;52.528;13.342;2022-10-03T03:03:53;159186.13;;;12.66;100.00
29331;BME280;16331;52.528;13.342;2022-10-03T03:06:51;159171.00;;;12.60;100.00
29331;BME280;16331;52.528;13.342;2022-10-03T03:23:35;159139.38;;;12.49;100.00
29331;BME280;16331;52.528;13.342;2022-10-03T03:28:51;159133.91;;;12.47;100.00
29331;BME280;16331;52.528;13.342;2022-10-03T03:31:34;159143.47;;;12.50;100.00
29331;BME280;16331;52.528;13.342;2022-10-03T03:34:27;159176.50;;;12.62;100.00
29331;BME280;16331;52.528;13.342;2022-10-03T03:37:08;159171.00;;;12.60;100.00
29331;BME280;16331;52.528;13.342;2022-10-03T03:42:59;159142.16;;;12.50;100.00
29331;BME280;16331;52.528;13.342;2022-10-03T03:51:40;159150.38;;;12.53;100.00
29331;BME280;16331;52.528;13.342;2022-10-03T04:00:15;159144.88;;;12.51;100.00
29331;BME280;16331;52.528;13.342;2022-10-03T04:05:45;159120.16;;;12.42;100.00
29331;BME280;16331;52.528;13.342;2022-10-03T04:08:36;159136.63;;;12.48;100.00
29331;BME280;16331;52.528;13.342;2022-10-03T04:17:03;159166.88;;;12.59;100.00
29331;BME280;16331;52.528;13.342;2022-10-03T04:22:39;159135.25;;;12.47;100.00
29331;BME280;16331;52.528;13.342;2022-10-03T04:25:31;159146.28;;;12.51;100.00
29331;BME280;16331;52.528;13.342;2022-10-03T04:28:22;159140.75;;;12.49;100.00
29331;BME280;16331;52.528;13.342;2022-10-03T04:34:34;159138.03;;;12.48;100.00
29331;BME280;16331;52.528;13.342;2022-10-03T04:39:49;159166.88;;;12.59;100.00
29331;BME280;16331;52.528;13.342;2022-10-03T04:42:48;159172.38;;;12.61;100.00
29331;BME280;16331;52.528;13.342;2022-10-03T04:45:47;159158.63;;;12.56;100.00
29331;BME280;16331;52.528;13.342;2022-10-03T04:51:17;159117.38;;;12.41;100.00
29331;BME280;16331;52.528;13.342;2022-10-03T04:53:54;159099.50;;;12.34;100.00
29331;BME280;16331;52.528;13.342;2022-10-03T04:56:47;159122.88;;;12.43;100.00
29331;BME280;16331;52.528;13.342;2022-10-03T05:02:19;159100.91;;;12.35;100.00
29331;BME280;16331;52.528;13.342;2022-10-03T05:08:01;159100.91;;;12.35;100.00
29331;BME280;16331;52.528;13.342;2022-10-03T05:10:47;159105.03;;;12.36;100.00
29331;BME280;16331;52.528;13.342;2022-10-03T05:13:31;159113.25;;;12.39;100.00
29331;BME280;16331;52.528;13.342;2022-10-03T05:22:26;159124.28;;;12.43;100.00
29331;BME280;16331;52.528;13.342;2022-10-03T05:25:21;159131.13;;;12.46;100.00
29331;BME280;16331;52.528;13.342;2022-10-03T05:28:16;159140.75;;;12.49;100.00
29331;BME280;16331;52.528;13.342;2022-10-03T05:31:04;159113.25;;;12.39;100.00
29331;BME280;16331;52.528;13.342;2022-10-03T05:33:51;159120.16;;;12.42;100.00
29331;BME280;16331;52.528;13.342;2022-10-03T05:36:56;159144.88;;;12.51;100.00
29331;BME280;16331;52.528;13.342;2022-10-03T05:39:37;159136.63;;;12.48;100.00
29331;BME280;16331;52.528;13.342;2022-10-03T05:42:20;159142.16;;;12.50;100.00
29331;BME280;16331;52.528;13.342;2022-10-03T05:45:00;159140.75;;;12.49;100.00
29331;BME280;16331;52.528;13.342;2022-10-03T05:47:45;159136.63;;;12.48;100.00
29331;BME280;16331;52.528;13.342;2022-10-03T05:50:40;159128.41;;;12.45;100.00
29331;BME280;16331;52.528;13.342;2022-10-03T05:56:07;159182.00;;;12.64;100.00
29331;BME280;16331;52.528;13.342;2022-10-03T05:59:19;159205.34;;;12.73;100.00
29331;BME280;16331;52.528;13.342;2022-10-03T06:10:38;159142.16;;;12.50;100.00
29331;BME280;16331;52.528;13.342;2022-10-03T06:19:21;159125.63;;;12.44;100.00
29331;BME280;16331;52.528;13.342;2022-10-03T06:25:02;159158.63;;;12.56;100.00
29331;BME280;16331;52.528;13.342;2022-10-03T06:28:13;159146.28;;;12.51;100.00
29331;BME280;16331;52.528;13.342;2022-10-03T06:31:04;159186.13;;;12.66;100.00
29331;BME280;16331;52.528;13.342;2022-10-03T06:34:01;159194.38;;;12.69;100.00
29331;BME280;16331;52.528;13.342;2022-10-03T06:53:14;159226.00;;;12.80;100.00
29331;BME280;16331;52.528;13.342;2022-10-03T06:55:49;159254.84;;;12.91;100.00
29331;BME280;16331;52.528;13.342;2022-10-03T06:58:41;159290.66;;;13.04;100.00
29331;BME280;16331;52.528;13.342;2022-10-03T07:12:14;159356.66;;;13.28;100.00
29331;BME280;16331;52.528;13.342;2022-10-03T07:14:59;159403.41;;;13.45;100.00
29331;BME280;16331;52.528;13.342;2022-10-03T07:31:49;159393.75;;;13.42;100.00
29331;BME280;16331;52.528;13.342;2022-10-03T07:52:56;159524.44;;;13.89;100.00
29331;BME280;16331;52.528;13.342;2022-10-03T07:55:08;159501.09;;;13.81;100.00
29331;BME280;16331;52.528;13.342;2022-10-03T07:57:56;159556.09;;;14.01;100.00
29331;BME280;16331;52.528;13.342;2022-10-03T08:06:18;159569.88;;;14.06;100.00
29331;BME280;16331;52.528;13.342;2022-10-03T08:12:27;159532.75;;;13.92;100.00
29331;BME280;16331;52.528;13.342;2022-10-03T08:15:29;159546.47;;;13.97;100.00
29331;BME280;16331;52.528;13.342;2022-10-03T08:20:55;159535.47;;;13.93;100.00
29331;BME280;16331;52.528;13.342;2022-10-03T08:23:39;159546.47;;;13.97;100.00
29331;BME280;16331;52.528;13.342;2022-10-03T08:26:19;159618.03;;;14.23;100.00
29331;BME280;16331;52.528;13.342;2022-10-03T08:28:58;159706.22;;;14.56;100.00
29331;BME280;16331;52.528;13.342;2022-10-03T08:31:42;159777.81;;;14.82;100.00
29331;BME280;16331;52.528;13.342;2022-10-03T08:37:10;159697.94;;;14.52;100.00
29331;BME280;16331;52.528;13.342;2022-10-03T08:48:51;159808.09;;;14.93;100.00
29331;BME280;16331;52.528;13.342;2022-10-03T08:51:37;159797.06;;;14.89;100.00
29331;BME280;16331;52.528;13.342;2022-10-03T08:54:27;159897.66;;;15.25;100.00
29331;BME280;16331;52.528;13.342;2022-10-03T09:05:19;159813.63;;;14.95;100.00
29331;BME280;16331;52.528;13.342;2022-10-03T09:08:04;159854.91;;;15.10;100.00
29331;BME280;16331;52.528;13.342;2022-10-03T09:11:02;159805.38;;;14.92;100.00
29331;BME280;16331;52.528;13.342;2022-10-03T09:23:13;159874.22;;;15.17;100.00
29331;BME280;16331;52.528;13.342;2022-10-03T09:28:57;159952.81;;;15.45;100.00
29331;BME280;16331;52.528;13.342;2022-10-03T09:34:46;160012.09;;;15.67;100.00
29331;BME280;16331;52.528;13.342;2022-10-03T09:53:35;160127.84;;;16.09;100.00
29331;BME280;16331;52.528;13.342;2022-10-03T09:56:46;160183.00;;;16.29;100.00
29331;BME280;16331;52.528;13.342;2022-10-03T10:05:37;159973.47;;;15.53;100.00
29331;BME280;16331;52.528;13.342;2022-10-03T10:20:09;160176.09;;;16.27;100.00
29331;BME280;16331;52.528;13.342;2022-10-03T10:23:14;160116.84;;;16.05;100.00
29331;BME280;16331;52.528;13.342;2022-10-03T10:35:01;160188.50;;;16.31;100.00
29331;BME280;16331;52.528;13.342;2022-10-03T10:38:01;160213.34;;;16.40;100.00
29331;BME280;16331;52.528;13.342;2022-10-03T10:40:55;160280.94;;;16.65;100.00
29331;BME280;16331;52.528;13.342;2022-10-03T10:49:55;160412.03;;;17.12;100.00
29331;BME280;16331;52.528;13.342;2022-10-03T10:53:49;160362.34;;;16.94;100.00
29331;BME280;16331;52.528;13.342;2022-10-03T11:07:28;160279.59;;;16.64;100.00
29331;BME280;16331;52.528;13.342;2022-10-03T11:10:42;160294.75;;;16.70;100.00
29331;BME280;16331;52.528;13.342;2022-10-03T11:13:55;160369.22;;;16.97;100.00
29331;BME280;16331;52.528;13.342;2022-10-03T11:28:21;160348.56;;;16.89;100.00
29331;BME280;16331;52.528;13.342;2022-10-03T11:31:10;160320.94;;;16.79;100.00
29331;BME280;16331;52.528;13.342;2022-10-03T11:34:20;160326.47;;;16.81;100.00
29331;BME280;16331;52.528;13.342;2022-10-03T11:37:28;160323.75;;;16.80;100.00
29331;BME280;16331;52.528;13.342;2022-10-03T11:43:17;160311.28;;;16.76;100.00
29331;BME280;16331;52.528;13.342;2022-10-03T11:46:24;160257.53;;;16.56;100.00
29331;BME280;16331;52.528;13.342;2022-10-03T11:49:08;160224.34;;;16.44;100.00
29331;BME280;16331;52.528;13.342;2022-10-03T11:54:44;160287.88;;;16.67;100.00
29331;BME280;16331;52.528;13.342;2022-10-03T11:57:27;160337.53;;;16.85;100.00
29331;BME280;16331;52.528;13.342;2022-10-03T12:00:00;160274.06;;;16.62;100.00
29331;BME280;16331;52.528;13.342;2022-10-03T12:05:22;160196.81;;;16.34;100.00
29331;BME280;16331;52.528;13.342;2022-10-03T12:14:09;160565.28;;;17.68;100.00
29331;BME280;16331;52.528;13.342;2022-10-03T12:20:02;160278.19;;;16.64;100.00
29331;BME280;16331;52.528;13.342;2022-10-03T12:22:41;160403.72;;;17.09;100.00
29331;BME280;16331;52.528;13.342;2022-10-03T12:27:57;160580.44;;;17.74;100.00
29331;BME280;16331;52.528;13.342;2022-10-03T12:30:30;160406.50;;;17.10;100.00
29331;BME280;16331;52.528;13.342;2022-10-03T12:34:21;160605.31;;;17.83;100.00
29331;BME280;16331;52.528;13.342;2022-10-03T12:36:28;160906.47;;;18.92;100.00
29331;BME280;16331;52.528;13.342;2022-10-03T12:45:22;160997.72;;;19.25;100.00
29331;BME280;16331;52.528;13.342;2022-10-03T12:48:06;160829.09;;;18.64;100.00
29331;BME280;16331;52.528;13.342;2022-10-03T12:51:00;160909.25;;;18.93;100.00
29331;BME280;16331;52.528;13.342;2022-10-03T12:56:24;160851.22;;;18.72;100.00
29331;BME280;16331;52.528;13.342;2022-10-03T13:01:51;160452.06;;;17.27;100.00
29331;BME280;16331;52.528;13.342;2022-10-03T13:04:42;160475.50;;;17.35;100.00
29331;BME280;16331;52.528;13.342;2022-10-03T13:10:21;161290.97;;;20.32;100.00
29331;BME280;16331;52.528;13.342;2022-10-03T13:13:02;161459.81;;;20.93;97.67
29331;BME280;16331;52.528;13.342;2022-10-03T13:18:49;161398.94;;;20.71;92.00
29331;BME280;16331;52.528;13.342;2022-10-03T13:24:49;161177.50;;;19.90;98.49
29331;BME280;16331;52.528;13.342;2022-10-03T13:27:33;161194.09;;;19.96;96.54
29331;BME280;16331;52.528;13.342;2022-10-03T13:30:12;160929.97;;;19.01;100.00
29331;BME280;16331;52.528;13.342;2022-10-03T13:32:47;160807.00;;;18.56;100.00
29331;BME280;16331;52.528;13.342;2022-10-03T13:35:33;160870.59;;;18.79;100.00
29331;BME280;16331;52.528;13.342;2022-10-03T13:44:20;161068.28;;;19.51;100.00
29331;BME280;16331;52.528;13.342;2022-10-03T13:49:34;161393.38;;;20.69;92.71
29331;BME280;16331;52.528;13.342;2022-10-03T13:58:23;161432.13;;;20.83;88.40
29331;BME280;16331;52.528;13.342;2022-10-03T14:01:15;161238.34;;;20.12;93.72
29331;BME280;16331;52.528;13.342;2022-10-03T14:13:03;161512.47;;;21.12;89.90
29331;BME280;16331;52.528;13.342;2022-10-03T14:15:57;161847.72;;;22.33;83.41
29331;BME280;16331;52.528;13.342;2022-10-03T14:24:19;161062.72;;;19.49;100.00
29331;BME280;16331;52.528;13.342;2022-10-03T14:32:29;160795.91;;;18.52;100.00
29331;BME280;16331;52.528;13.342;2022-10-03T14:35:26;160783.50;;;18.47;100.00
29331;BME280;16331;52.528;13.342;2022-10-03T14:38:34;160699.19;;;18.17;100.00
29331;BME280;16331;52.528;13.342;2022-10-03T14:41:45;160646.72;;;17.98;100.00
29331;BME280;16331;52.528;13.342;2022-10-03T14:44:19;160572.16;;;17.71;100.00
29331;BME280;16331;52.528;13.342;2022-10-03T14:46:57;160527.97;;;17.55;100.00
29331;BME280;16331;52.528;13.342;2022-10-03T14:49:32;160552.88;;;17.64;100.00
29331;BME280;16331;52.528;13.342;2022-10-03T14:52:36;160526.63;;;17.54;100.00
29331;BME280;16331;52.528;13.342;2022-10-03T14:57:52;160489.28;;;17.41;100.00
29331;BME280;16331;52.528;13.342;2022-10-03T15:00:36;160418.91;;;17.15;100.00
29331;BME280;16331;52.528;13.342;2022-10-03T15:03:33;160454.81;;;17.28;100.00
29331;BME280;16331;52.528;13.342;2022-10-03T15:09:00;160414.78;;;17.13;100.00
29331;BME280;16331;52.528;13.342;2022-10-03T15:11:32;160446.53;;;17.25;100.00
29331;BME280;16331;52.528;13.342;2022-10-03T15:14:08;160456.19;;;17.28;100.00
29331;BME280;16331;52.528;13.342;2022-10-03T15:16:46;160453.41;;;17.27;100.00
29331;BME280;16331;52.528;13.342;2022-10-03T15:19:20;160427.19;;;17.18;100.00
29331;BME280;16331;52.528;13.342;2022-10-03T15:21:52;160412.03;;;17.12;100.00
29331;BME280;16331;52.528;13.342;2022-10-03T15:24:30;160414.78;;;17.13;100.00
29331;BME280;16331;52.528;13.342;2022-10-03T15:27:07;160428.59;;;17.18;100.00
29331;BME280;16331;52.528;13.342;2022-10-03T15:29:35;160407.91;;;17.11;100.00
29331;BME280;16331;52.528;13.342;2022-10-03T15:32:06;160365.09;;;16.95;100.00
29331;BME280;16331;52.528;13.342;2022-10-03T15:34:41;160394.09;;;17.06;100.00
29331;BME280;16331;52.528;13.342;2022-10-03T15:37:18;160363.75;;;16.95;100.00
29331;BME280;16331;52.528;13.342;2022-10-03T15:39:45;160376.16;;;16.99;100.00
29331;BME280;16331;52.528;13.342;2022-10-03T15:42:22;160356.81;;;16.92;100.00
29331;BME280;16331;52.528;13.342;2022-10-03T15:44:56;160330.63;;;16.83;100.00
29331;BME280;16331;52.528;13.342;2022-10-03T15:47:27;160320.94;;;16.79;100.00
29331;BME280;16331;52.528;13.342;2022-10-03T15:49:58;160309.94;;;16.75;100.00
29331;BME280;16331;52.528;13.342;2022-10-03T15:52:42;160301.66;;;16.72;100.00
29331;BME280;16331;52.528;13.342;2022-10-03T15:55:13;160285.06;;;16.66;100.00
29331;BME280;16331;52.528;13.342;2022-10-03T15:57:48;160274.06;;;16.62;100.00
29331;BME280;16331;52.528;13.342;2022-10-03T16:00:46;160252.00;;;16.54;100.00
29331;BME280;16331;52.528;13.342;2022-10-03T16:03:23;160257.53;;;16.56;100.00
29331;BME280;16331;52.528;13.342;2022-10-03T16:05:58;160260.25;;;16.57;100.00
29331;BME280;16331;52.528;13.342;2022-10-03T16:08:31;160257.53;;;16.56;100.00
29331;BME280;16331;52.528;13.342;2022-10-03T16:11:21;160265.78;;;16.59;100.00
29331;BME280;16331;52.528;13.342;2022-10-03T16:17:15;160260.25;;;16.57;100.00
29331;BME280;16331;52.528;13.342;2022-10-03T16:19:55;160265.78;;;16.59;100.00
29331;BME280;16331;52.528;13.342;2022-10-03T16:25:49;160133.38;;;16.11;100.00
29331;BME280;16331;52.528;13.342;2022-10-03T16:28:20;160100.25;;;15.99;100.00
29331;BME280;16331;52.528;13.342;2022-10-03T16:31:00;160087.84;;;15.94;100.00
29331;BME280;16331;52.528;13.342;2022-10-03T16:33:34;160154.03;;;16.19;100.00
29331;BME280;16331;52.528;13.342;2022-10-03T16:36:09;160171.94;;;16.25;100.00
29331;BME280;16331;52.528;13.342;2022-10-03T16:38:59;160183.00;;;16.29;100.00
29331;BME280;16331;52.528;13.342;2022-10-03T16:41:31;160160.94;;;16.21;100.00
29331;BME280;16331;52.528;13.342;2022-10-03T16:44:00;160176.09;;;16.27;100.00
29331;BME280;16331;52.528;13.342;2022-10-03T16:46:32;160123.69;;;16.08;100.00
29331;BME280;16331;52.528;13.342;2022-10-03T16:49:02;160120.97;;;16.07;100.00
29331;BME280;16331;52.528;13.342;2022-10-03T16:52:04;160114.03;;;16.04;100.00
29331;BME280;16331;52.528;13.342;2022-10-03T16:54:34;160105.78;;;16.01;100.00
29331;BME280;16331;52.528;13.342;2022-10-03T16:57:04;160114.03;;;16.04;100.00
29331;BME280;16331;52.528;13.342;2022-10-03T16:59:33;160103.03;;;16.00;100.00
29331;BME280;16331;52.528;13.342;2022-10-03T17:02:10;160071.31;;;15.88;100.00
29331;BME280;16331;52.528;13.342;2022-10-03T17:04:40;160079.59;;;15.91;100.00
29331;BME280;16331;52.528;13.342;2022-10-03T17:07:23;160075.44;;;15.90;100.00
29331;BME280;16331;52.528;13.342;2022-10-03T17:09:56;160047.88;;;15.80;100.00
29331;BME280;16331;52.528;13.342;2022-10-03T17:12:42;160045.13;;;15.79;100.00
29331;BME280;16331;52.528;13.342;2022-10-03T17:15:27;160064.44;;;15.86;100.00
29331;BME280;16331;52.528;13.342;2022-10-03T17:18:13;160057.53;;;15.83;100.00
29331;BME280;16331;52.528;13.342;2022-10-03T17:20:51;160036.88;;;15.76;100.00
29331;BME280;16331;52.528;13.342;2022-10-03T17:25:56;160025.81;;;15.72;100.00
29331;BME280;16331;52.528;13.342;2022-10-03T17:31:26;159995.50;;;15.61;100.00
29331;BME280;16331;52.528;13.342;2022-10-03T17:33:59;159963.81;;;15.49;100.00
29331;BME280;16331;52.528;13.342;2022-10-03T17:36:58;159990.03;;;15.59;100.00
29331;BME280;16331;52.528;13.342;2022-10-03T17:45:32;159948.69;;;15.44;100.00
29331;BME280;16331;52.528;13.342;2022-10-03T17:48:13;159926.56;;;15.36;100.00
29331;BME280;16331;52.528;13.342;2022-10-03T17:51:22;159915.53;;;15.32;100.00
29331;BME280;16331;52.528;13.342;2022-10-03T17:53:50;159912.78;;;15.31;100.00
29331;BME280;16331;52.528;13.342;2022-10-03T17:56:19;159943.16;;;15.42;100.00
29331;BME280;16331;52.528;13.342;2022-10-03T17:59:00;159943.16;;;15.42;100.00
29331;BME280;16331;52.528;13.342;2022-10-03T18:01:47;159899.00;;;15.26;100.00
29331;BME280;16331;52.528;13.342;2022-10-03T18:04:20;159871.44;;;15.16;100.00
29331;BME280;16331;52.528;13.342;2022-10-03T18:07:05;159854.91;;;15.10;100.00
29331;BME280;16331;52.528;13.342;2022-10-03T18:09:41;159874.22;;;15.17;100.00
29331;BME280;16331;52.528;13.342;2022-10-03T18:12:31;159828.75;;;15.00;100.00
29331;BME280;16331;52.528;13.342;2022-10-03T18:21:31;159802.59;;;14.91;100.00
29331;BME280;16331;52.528;13.342;2022-10-03T18:24:11;159827.41;;;15.00;100.00
29331;BME280;16331;52.528;13.342;2022-10-03T18:26:44;159841.16;;;15.05;100.00
29331;BME280;16331;52.528;13.342;2022-10-03T18:31:48;159841.16;;;15.05;100.00
29331;BME280;16331;52.528;13.342;2022-10-03T18:34:28;159809.50;;;14.93;100.00
29331;BME280;16331;52.528;13.342;2022-10-03T18:39:46;159795.72;;;14.88;100.00
29331;BME280;16331;52.528;13.342;2022-10-03T18:42:12;159779.16;;;14.82;100.00
29331;BME280;16331;52.528;13.342;2022-10-03T18:44:43;159773.69;;;14.80;100.00
29331;BME280;16331;52.528;13.342;2022-10-03T18:47:15;159772.28;;;14.80;100.00
29331;BME280;16331;52.528;13.342;2022-10-03T18:49:49;159772.28;;;14.80;100.00
29331;BME280;16331;52.528;13.342;2022-10-03T18:55:17;159758.53;;;14.75;100.00
29331;BME280;16331;52.528;13.342;2022-10-03T18:58:03;159761.31;;;14.76;100.00
29331;BME280;16331;52.528;13.342;2022-10-03T19:00:38;159768.16;;;14.78;100.00
29331;BME280;16331;52.528;13.342;2022-10-03T19:03:14;159768.16;;;14.78;100.00
29331;BME280;16331;52.528;13.342;2022-10-03T19:08:24;159832.88;;;15.02;100.00
29331;BME280;16331;52.528;13.342;2022-10-03T19:10:54;159835.69;;;15.03;100.00
29331;BME280;16331;52.528;13.342;2022-10-03T19:16:01;159848.06;;;15.07;100.00
29331;BME280;16331;52.528;13.342;2022-10-03T19:21:20;159832.88;;;15.02;100.00
29331;BME280;16331;52.528;13.342;2022-10-03T19:24:03;159810.84;;;14.94;100.00
29331;BME280;16331;52.528;13.342;2022-10-03T19:26:41;159797.06;;;14.89;100.00
29331;BME280;16331;52.528;13.342;2022-10-03T19:29:14;159786.06;;;14.85;100.00
29331;BME280;16331;52.528;13.342;2022-10-03T19:32:04;159773.69;;;14.80;100.00
29331;BME280;16331;52.528;13.342;2022-10-03T19:34:35;159761.31;;;14.76;100.00
29331;BME280;16331;52.528;13.342;2022-10-03T19:37:15;159755.78;;;14.74;100.00
29331;BME280;16331;52.528;13.342;2022-10-03T19:39:42;159751.66;;;14.72;100.00
29331;BME280;16331;52.528;13.342;2022-10-03T19:42:40;159710.34;;;14.57;100.00
29331;BME280;16331;52.528;13.342;2022-10-03T19:45:12;159684.19;;;14.47;100.00
29331;BME280;16331;52.528;13.342;2022-10-03T19:47:46;159706.22;;;14.56;100.00
29331;BME280;16331;52.528;13.342;2022-10-03T19:50:19;159686.91;;;14.48;100.00
29331;BME280;16331;52.528;13.342;2022-10-03T19:52:49;159704.81;;;14.55;100.00
29331;BME280;16331;52.528;13.342;2022-10-03T19:55:28;159703.47;;;14.55;100.00
29331;BME280;16331;52.528;13.342;2022-10-03T19:58:02;159732.34;;;14.65;100.00
29331;BME280;16331;52.528;13.342;2022-10-03T20:00:30;159739.28;;;14.68;100.00
29331;BME280;16331;52.528;13.342;2022-10-03T20:03:19;159697.94;;;14.52;100.00
29331;BME280;16331;52.528;13.342;2022-10-03T20:05:58;159700.69;;;14.53;100.00
29331;BME280;16331;52.528;13.342;2022-10-03T20:08:43;159729.63;;;14.64;100.00
29331;BME280;16331;52.528;13.342;2022-10-03T20:13:47;159747.53;;;14.71;100.00
29331;BME280;16331;52.528;13.342;2022-10-03T20:16:23;159743.41;;;14.69;100.00
29331;BME280;16331;52.528;13.342;2022-10-03T20:18:51;159766.78;;;14.78;100.00
29331;BME280;16331;52.528;13.342;2022-10-03T20:21:22;159769.56;;;14.79;100.00
29331;BME280;16331;52.528;13.342;2022-10-03T20:23:52;159747.53;;;14.71;100.00
29331;BME280;16331;52.528;13.342;2022-10-03T20:31:41;159704.81;;;14.55;100.00
29331;BME280;16331;52.528;13.342;2022-10-03T20:34:15;159708.94;;;14.57;100.00
29331;BME280;16331;52.528;13.342;2022-10-03T20:36:54;159708.94;;;14.57;100.00
29331;BME280;16331;52.528;13.342;2022-10-03T20:41:56;159692.44;;;14.50;100.00
29331;BME280;16331;52.528;13.342;2022-10-03T20:50:21;159689.69;;;14.49;100.00
29331;BME280;16331;52.528;13.342;2022-10-03T20:52:50;159688.31;;;14.49;100.00
29331;BME280;16331;52.528;13.342;2022-10-03T20:55:33;159689.69;;;14.49;100.00
29331;BME280;16331;52.528;13.342;2022-10-03T20:58:32;159664.94;;;14.40;100.00
29331;BME280;16331;52.528;13.342;2022-10-03T21:01:22;159667.66;;;14.41;100.00
29331;BME280;16331;52.528;13.342;2022-10-03T21:04:19;159667.66;;;14.41;100.00
29331;BME280;16331;52.528;13.342;2022-10-03T21:09:43;159653.91;;;14.36;100.00
29331;BME280;16331;52.528;13.342;2022-10-03T21:12:25;159689.69;;;14.49;100.00
29331;BME280;16331;52.528;13.342;2022-10-03T21:14:56;159680.03;;;14.46;100.00
29331;BME280;16331;52.528;13.342;2022-10-03T21:17:26;159667.66;;;14.41;100.00
29331;BME280;16331;52.528;13.342;2022-10-03T21:19:58;159669.06;;;14.42;100.00
29331;BME280;16331;52.528;13.342;2022-10-03T21:22:27;159674.53;;;14.44;100.00
29331;BME280;16331;52.528;13.342;2022-10-03T21:25:18;159659.41;;;14.38;100.00
29331;BME280;16331;52.528;13.342;2022-10-03T21:27:52;159667.66;;;14.41;100.00
29331;BME280;16331;52.528;13.342;2022-10-03T21:30:23;159663.53;;;14.40;100.00
29331;BME280;16331;52.528;13.342;2022-10-03T21:33:10;159673.19;;;14.43;100.00
29331;BME280;16331;52.528;13.342;2022-10-03T21:35:40;159677.31;;;14.45;100.00
29331;BME280;16331;52.528;13.342;2022-10-03T21:38:22;159677.31;;;14.45;100.00
29331;BME280;16331;52.528;13.342;2022-10-03T21:43:46;159663.53;;;14.40;100.00
29331;BME280;16331;52.528;13.342;2022-10-03T21:54:35;159653.91;;;14.36;100.00
29331;BME280;16331;52.528;13.342;2022-10-03T21:57:28;159655.28;;;14.37;100.00
29331;BME280;16331;52.528;13.342;2022-10-03T22:08:17;159675.91;;;14.44;100.00
29331;BME280;16331;52.528;13.342;2022-10-03T22:11:01;159662.16;;;14.39;100.00
29331;BME280;16331;52.528;13.342;2022-10-03T22:13:35;159659.41;;;14.38;100.00
29331;BME280;16331;52.528;13.342;2022-10-03T22:16:11;159655.28;;;14.37;100.00
29331;BME280;16331;52.528;13.342;2022-10-03T22:19:01;159670.41;;;14.42;100.00
29331;BME280;16331;52.528;13.342;2022-10-03T22:21:39;159669.06;;;14.42;100.00
29331;BME280;16331;52.528;13.342;2022-10-03T22:24:17;159651.16;;;14.35;100.00